sensor_id;sensor_type;location;lat;lon;timestamp;P1;durP1;ratioP1;P2;durP2;ratioP2
19842;SDS011;10082;51.038;6.992;2022-11-25T00:01:32;7.15;;;3.00;;
19842;SDS011;10082;51.038;6.992;2022-11-25T00:04:00;6.03;;;2.43;;
19842;SDS011;10082;51.038;6.992;2022-11-25T00:06:28;8.20;;;2.90;;
19842;SDS011;10082;51.038;6.992;2022-11-25T00:08:58;8.88;;;2.60;;
19842;SDS011;10082;51.038;6.992;2022-11-25T00:11:27;8.02;;;2.72;;
19842;SDS011;10082;51.038;6.992;2022-11-25T00:13:55;8.20;;;2.80;;
19842;SDS011;10082;51.038;6.992;2022-11-25T00:16:23;5.93;;;2.40;;
19842;SDS011;10082;51.038;6.992;2022-11-25T00:18:51;7.40;;;2.90;;
19842;SDS011;10082;51.038;6.992;2022-11-25T00:21:19;8.23;;;2.77;;
19842;SDS011;10082;51.038;6.992;2022-11-25T00:23:51;8.37;;;3.17;;
19842;SDS011;10082;51.038;6.992;2022-11-25T00:26:21;9.20;;;3.00;;
19842;SDS011;10082;51.038;6.992;2022-11-25T00:28:50;8.37;;;2.83;;
19842;SDS011;10082;51.038;6.992;2022-11-25T00:31:18;9.43;;;2.80;;
19842;SDS011;10082;51.038;6.992;2022-11-25T00:33:46;7.83;;;2.97;;
19842;SDS011;10082;51.038;6.992;2022-11-25T00:36:15;7.53;;;2.83;;
19842;SDS011;10082;51.038;6.992;2022-11-25T00:38:44;6.77;;;2.67;;
19842;SDS011;10082;51.038;6.992;2022-11-25T00:41:12;8.23;;;3.37;;
19842;SDS011;10082;51.038;6.992;2022-11-25T00:44:00;9.37;;;3.33;;
19842;SDS011;10082;51.038;6.992;2022-11-25T00:46:44;11.70;;;3.03;;
19842;SDS011;10082;51.038;6.992;2022-11-25T00:49:11;10.60;;;3.37;;
19842;SDS011;10082;51.038;6.992;2022-11-25T00:51:38;7.60;;;3.10;;
19842;SDS011;10082;51.038;6.992;2022-11-25T00:54:05;6.40;;;2.53;;
19842;SDS011;10082;51.038;6.992;2022-11-25T00:56:32;7.50;;;3.43;;
19842;SDS011;10082;51.038;6.992;2022-11-25T00:59:01;8.13;;;2.73;;
19842;SDS011;10082;51.038;6.992;2022-11-25T01:01:29;7.90;;;3.20;;
19842;SDS011;10082;51.038;6.992;2022-11-25T01:03:56;8.47;;;2.57;;
19842;SDS011;10082;51.038;6.992;2022-11-25T01:06:23;7.63;;;2.90;;
19842;SDS011;10082;51.038;6.992;2022-11-25T01:08:50;8.20;;;2.83;;
19842;SDS011;10082;51.038;6.992;2022-11-25T01:11:19;8.50;;;2.83;;
19842;SDS011;10082;51.038;6.992;2022-11-25T01:13:47;6.60;;;2.67;;
19842;SDS011;10082;51.038;6.992;2022-11-25T01:16:17;9.03;;;2.90;;
19842;SDS011;10082;51.038;6.992;2022-11-25T01:18:46;5.73;;;2.63;;
19842;SDS011;10082;51.038;6.992;2022-11-25T01:21:18;6.27;;;2.63;;
19842;SDS011;10082;51.038;6.992;2022-11-25T01:23:47;7.17;;;2.57;;
19842;SDS011;10082;51.038;6.992;2022-11-25T01:26:15;7.70;;;2.87;;
19842;SDS011;10082;51.038;6.992;2022-11-25T01:28:43;7.85;;;2.58;;
19842;SDS011;10082;51.038;6.992;2022-11-25T01:31:11;8.53;;;2.73;;
19842;SDS011;10082;51.038;6.992;2022-11-25T01:33:42;7.47;;;3.00;;
19842;SDS011;10082;51.038;6.992;2022-11-25T01:36:11;6.37;;;2.93;;
19842;SDS011;10082;51.038;6.992;2022-11-25T01:38:41;9.23;;;2.40;;
19842;SDS011;10082;51.038;6.992;2022-11-25T01:41:10;7.73;;;2.80;;
19842;SDS011;10082;51.038;6.992;2022-11-25T01:43:39;7.03;;;2.73;;
19842;SDS011;10082;51.038;6.992;2022-11-25T01:46:07;5.27;;;2.50;;
19842;SDS011;10082;51.038;6.992;2022-11-25T01:48:48;8.43;;;3.07;;
19842;SDS011;10082;51.038;6.992;2022-11-25T01:51:20;7.57;;;2.93;;
19842;SDS011;10082;51.038;6.992;2022-11-25T01:53:51;5.80;;;2.60;;
19842;SDS011;10082;51.038;6.992;2022-11-25T01:56:20;6.30;;;2.73;;
19842;SDS011;10082;51.038;6.992;2022-11-25T01:58:47;7.17;;;2.87;;
19842;SDS011;10082;51.038;6.992;2022-11-25T02:01:15;6.20;;;2.77;;
19842;SDS011;10082;51.038;6.992;2022-11-25T02:03:43;5.90;;;2.22;;
19842;SDS011;10082;51.038;6.992;2022-11-25T02:06:15;6.87;;;2.90;;
19842;SDS011;10082;51.038;6.992;2022-11-25T02:08:49;6.53;;;2.53;;
19842;SDS011;10082;51.038;6.992;2022-11-25T02:11:19;7.03;;;3.13;;
19842;SDS011;10082;51.038;6.992;2022-11-25T02:13:48;8.00;;;2.55;;
19842;SDS011;10082;51.038;6.992;2022-11-25T02:16:17;9.07;;;3.30;;
19842;SDS011;10082;51.038;6.992;2022-11-25T02:18:44;7.97;;;3.00;;
19842;SDS011;10082;51.038;6.992;2022-11-25T02:21:12;6.13;;;2.70;;
19842;SDS011;10082;51.038;6.992;2022-11-25T02:23:45;7.05;;;2.75;;
19842;SDS011;10082;51.038;6.992;2022-11-25T02:26:19;10.60;;;3.13;;
19842;SDS011;10082;51.038;6.992;2022-11-25T02:28:48;8.73;;;2.77;;
19842;SDS011;10082;51.038;6.992;2022-11-25T02:31:17;5.28;;;2.58;;
19842;SDS011;10082;51.038;6.992;2022-11-25T02:33:45;9.37;;;2.90;;
19842;SDS011;10082;51.038;6.992;2022-11-25T02:36:14;8.02;;;2.90;;
19842;SDS011;10082;51.038;6.992;2022-11-25T02:38:47;9.45;;;2.95;;
19842;SDS011;10082;51.038;6.992;2022-11-25T02:41:17;10.00;;;3.10;;
19842;SDS011;10082;51.038;6.992;2022-11-25T02:43:53;8.13;;;3.05;;
19842;SDS011;10082;51.038;6.992;2022-11-25T02:46:22;9.07;;;3.30;;
19842;SDS011;10082;51.038;6.992;2022-11-25T02:48:50;8.60;;;3.57;;
19842;SDS011;10082;51.038;6.992;2022-11-25T02:51:19;8.25;;;3.20;;
19842;SDS011;10082;51.038;6.992;2022-11-25T02:53:48;9.43;;;2.93;;
19842;SDS011;10082;51.038;6.992;2022-11-25T02:56:19;7.30;;;2.70;;
19842;SDS011;10082;51.038;6.992;2022-11-25T02:58:48;5.73;;;2.80;;
19842;SDS011;10082;51.038;6.992;2022-11-25T03:01:15;8.10;;;2.70;;
19842;SDS011;10082;51.038;6.992;2022-11-25T03:03:42;6.18;;;2.70;;
19842;SDS011;10082;51.038;6.992;2022-11-25T03:06:09;8.95;;;2.95;;
19842;SDS011;10082;51.038;6.992;2022-11-25T03:08:37;7.20;;;3.03;;
19842;SDS011;10082;51.038;6.992;2022-11-25T03:11:07;6.63;;;2.90;;
19842;SDS011;10082;51.038;6.992;2022-11-25T03:13:36;6.82;;;3.50;;
19842;SDS011;10082;51.038;6.992;2022-11-25T03:16:03;7.18;;;3.10;;
19842;SDS011;10082;51.038;6.992;2022-11-25T03:18:31;10.15;;;3.55;;
19842;SDS011;10082;51.038;6.992;2022-11-25T03:20:58;5.53;;;2.83;;
19842;SDS011;10082;51.038;6.992;2022-11-25T03:23:25;8.98;;;2.88;;
19842;SDS011;10082;51.038;6.992;2022-11-25T03:25:52;6.25;;;2.80;;
19842;SDS011;10082;51.038;6.992;2022-11-25T03:28:19;7.47;;;3.38;;
19842;SDS011;10082;51.038;6.992;2022-11-25T03:30:47;6.55;;;2.83;;
19842;SDS011;10082;51.038;6.992;2022-11-25T03:33:15;10.45;;;3.08;;
19842;SDS011;10082;51.038;6.992;2022-11-25T03:35:43;5.47;;;2.60;;
19842;SDS011;10082;51.038;6.992;2022-11-25T03:38:10;10.55;;;3.15;;
19842;SDS011;10082;51.038;6.992;2022-11-25T03:40:37;9.18;;;3.05;;
19842;SDS011;10082;51.038;6.992;2022-11-25T03:43:04;6.90;;;2.70;;
19842;SDS011;10082;51.038;6.992;2022-11-25T03:45:31;5.97;;;2.40;;
19842;SDS011;10082;51.038;6.992;2022-11-25T03:48:03;7.60;;;2.90;;
19842;SDS011;10082;51.038;6.992;2022-11-25T03:50:30;8.77;;;2.90;;
19842;SDS011;10082;51.038;6.992;2022-11-25T03:52:58;7.18;;;2.72;;
19842;SDS011;10082;51.038;6.992;2022-11-25T03:55:25;5.07;;;3.03;;
19842;SDS011;10082;51.038;6.992;2022-11-25T03:57:53;6.25;;;2.83;;
19842;SDS011;10082;51.038;6.992;2022-11-25T04:00:22;7.95;;;3.08;;
19842;SDS011;10082;51.038;6.992;2022-11-25T04:02:56;7.03;;;2.80;;
19842;SDS011;10082;51.038;6.992;2022-11-25T04:05:24;8.48;;;3.00;;
19842;SDS011;10082;51.038;6.992;2022-11-25T04:07:54;8.52;;;2.75;;
19842;SDS011;10082;51.038;6.992;2022-11-25T04:10:21;9.43;;;3.03;;
19842;SDS011;10082;51.038;6.992;2022-11-25T04:12:48;7.18;;;2.83;;
19842;SDS011;10082;51.038;6.992;2022-11-25T04:15:32;8.45;;;2.90;;
19842;SDS011;10082;51.038;6.992;2022-11-25T04:18:00;6.63;;;2.60;;
19842;SDS011;10082;51.038;6.992;2022-11-25T04:20:28;8.13;;;2.92;;
19842;SDS011;10082;51.038;6.992;2022-11-25T04:23:01;6.68;;;2.88;;
19842;SDS011;10082;51.038;6.992;2022-11-25T04:25:31;8.32;;;2.70;;
19842;SDS011;10082;51.038;6.992;2022-11-25T04:27:59;7.53;;;2.95;;
19842;SDS011;10082;51.038;6.992;2022-11-25T04:30:30;6.68;;;2.60;;
19842;SDS011;10082;51.038;6.992;2022-11-25T04:32:59;9.43;;;2.97;;
19842;SDS011;10082;51.038;6.992;2022-11-25T04:35:28;8.30;;;3.25;;
19842;SDS011;10082;51.038;6.992;2022-11-25T04:37:55;7.18;;;2.80;;
19842;SDS011;10082;51.038;6.992;2022-11-25T04:40:23;7.10;;;3.13;;
19842;SDS011;10082;51.038;6.992;2022-11-25T04:43:00;10.18;;;3.50;;
19842;SDS011;10082;51.038;6.992;2022-11-25T04:45:27;6.93;;;3.10;;
19842;SDS011;10082;51.038;6.992;2022-11-25T04:47:55;10.85;;;3.28;;
19842;SDS011;10082;51.038;6.992;2022-11-25T04:50:23;6.63;;;2.65;;
19842;SDS011;10082;51.038;6.992;2022-11-25T04:53:09;8.07;;;3.22;;
19842;SDS011;10082;51.038;6.992;2022-11-25T04:55:37;7.45;;;3.10;;
19842;SDS011;10082;51.038;6.992;2022-11-25T04:58:10;6.57;;;3.47;;
19842;SDS011;10082;51.038;6.992;2022-11-25T05:00:39;9.63;;;3.45;;
19842;SDS011;10082;51.038;6.992;2022-11-25T05:03:06;8.27;;;3.43;;
19842;SDS011;10082;51.038;6.992;2022-11-25T05:05:36;7.25;;;3.20;;
19842;SDS011;10082;51.038;6.992;2022-11-25T05:08:04;7.18;;;3.63;;
19842;SDS011;10082;51.038;6.992;2022-11-25T05:10:33;9.25;;;3.38;;
19842;SDS011;10082;51.038;6.992;2022-11-25T05:13:00;10.95;;;3.60;;
19842;SDS011;10082;51.038;6.992;2022-11-25T05:15:29;9.10;;;3.83;;
19842;SDS011;10082;51.038;6.992;2022-11-25T05:17:56;7.88;;;3.70;;
19842;SDS011;10082;51.038;6.992;2022-11-25T05:20:41;10.00;;;3.60;;
19842;SDS011;10082;51.038;6.992;2022-11-25T05:23:08;10.40;;;3.55;;
19842;SDS011;10082;51.038;6.992;2022-11-25T05:25:37;10.68;;;3.83;;
19842;SDS011;10082;51.038;6.992;2022-11-25T05:28:24;7.22;;;3.45;;
19842;SDS011;10082;51.038;6.992;2022-11-25T05:30:52;9.80;;;3.63;;
19842;SDS011;10082;51.038;6.992;2022-11-25T05:33:19;11.77;;;3.97;;
19842;SDS011;10082;51.038;6.992;2022-11-25T05:35:52;10.50;;;3.65;;
19842;SDS011;10082;51.038;6.992;2022-11-25T05:38:20;8.25;;;3.83;;
19842;SDS011;10082;51.038;6.992;2022-11-25T05:40:48;10.45;;;4.07;;
19842;SDS011;10082;51.038;6.992;2022-11-25T05:43:16;14.52;;;4.63;;
19842;SDS011;10082;51.038;6.992;2022-11-25T05:45:43;6.68;;;3.65;;
19842;SDS011;10082;51.038;6.992;2022-11-25T05:48:12;12.93;;;4.27;;
19842;SDS011;10082;51.038;6.992;2022-11-25T05:50:40;9.77;;;4.03;;
19842;SDS011;10082;51.038;6.992;2022-11-25T05:53:17;9.40;;;4.20;;
19842;SDS011;10082;51.038;6.992;2022-11-25T05:55:53;13.17;;;4.33;;
19842;SDS011;10082;51.038;6.992;2022-11-25T05:58:42;8.90;;;4.03;;
19842;SDS011;10082;51.038;6.992;2022-11-25T06:01:09;10.23;;;4.63;;
19842;SDS011;10082;51.038;6.992;2022-11-25T06:03:38;10.53;;;4.17;;
19842;SDS011;10082;51.038;6.992;2022-11-25T06:06:08;10.88;;;4.72;;
19842;SDS011;10082;51.038;6.992;2022-11-25T06:08:37;10.57;;;4.75;;
19842;SDS011;10082;51.038;6.992;2022-11-25T06:11:07;9.25;;;4.60;;
19842;SDS011;10082;51.038;6.992;2022-11-25T06:13:36;13.07;;;4.83;;
19842;SDS011;10082;51.038;6.992;2022-11-25T06:16:07;9.80;;;4.40;;
19842;SDS011;10082;51.038;6.992;2022-11-25T06:18:35;8.98;;;4.50;;
19842;SDS011;10082;51.038;6.992;2022-11-25T06:21:06;15.73;;;5.73;;
19842;SDS011;10082;51.038;6.992;2022-11-25T06:23:34;11.57;;;5.40;;
19842;SDS011;10082;51.038;6.992;2022-11-25T06:26:02;11.77;;;5.00;;
19842;SDS011;10082;51.038;6.992;2022-11-25T06:28:32;12.90;;;5.13;;
19842;SDS011;10082;51.038;6.992;2022-11-25T06:31:03;8.37;;;5.07;;
19842;SDS011;10082;51.038;6.992;2022-11-25T06:33:36;15.07;;;5.57;;
19842;SDS011;10082;51.038;6.992;2022-11-25T06:36:06;12.40;;;5.07;;
19842;SDS011;10082;51.038;6.992;2022-11-25T06:38:37;10.63;;;5.38;;
19842;SDS011;10082;51.038;6.992;2022-11-25T06:41:04;14.45;;;4.85;;
19842;SDS011;10082;51.038;6.992;2022-11-25T06:43:33;11.52;;;5.35;;
19842;SDS011;10082;51.038;6.992;2022-11-25T06:46:01;10.02;;;5.40;;
19842;SDS011;10082;51.038;6.992;2022-11-25T06:48:29;13.35;;;5.93;;
19842;SDS011;10082;51.038;6.992;2022-11-25T06:50:56;13.30;;;5.80;;
19842;SDS011;10082;51.038;6.992;2022-11-25T06:53:24;9.10;;;4.88;;
19842;SDS011;10082;51.038;6.992;2022-11-25T06:56:02;15.33;;;5.70;;
19842;SDS011;10082;51.038;6.992;2022-11-25T06:58:33;11.73;;;5.87;;
19842;SDS011;10082;51.038;6.992;2022-11-25T07:01:01;13.05;;;5.22;;
19842;SDS011;10082;51.038;6.992;2022-11-25T07:03:30;10.88;;;6.10;;
19842;SDS011;10082;51.038;6.992;2022-11-25T07:05:57;10.40;;;5.77;;
19842;SDS011;10082;51.038;6.992;2022-11-25T07:08:24;14.13;;;5.87;;
19842;SDS011;10082;51.038;6.992;2022-11-25T07:10:51;14.17;;;6.13;;
19842;SDS011;10082;51.038;6.992;2022-11-25T07:13:19;9.97;;;5.63;;
19842;SDS011;10082;51.038;6.992;2022-11-25T07:15:48;12.63;;;5.60;;
19842;SDS011;10082;51.038;6.992;2022-11-25T07:18:15;14.40;;;6.53;;
19842;SDS011;10082;51.038;6.992;2022-11-25T07:20:42;11.77;;;5.33;;
19842;SDS011;10082;51.038;6.992;2022-11-25T07:23:09;11.57;;;6.07;;
19842;SDS011;10082;51.038;6.992;2022-11-25T07:28:39;12.97;;;5.93;;
19842;SDS011;10082;51.038;6.992;2022-11-25T07:31:10;13.27;;;5.67;;
19842;SDS011;10082;51.038;6.992;2022-11-25T07:33:41;12.40;;;5.93;;
19842;SDS011;10082;51.038;6.992;2022-11-25T07:36:08;15.63;;;5.97;;
19842;SDS011;10082;51.038;6.992;2022-11-25T07:38:37;10.37;;;6.27;;
19842;SDS011;10082;51.038;6.992;2022-11-25T07:41:04;12.17;;;5.77;;
19842;SDS011;10082;51.038;6.992;2022-11-25T07:43:32;13.87;;;5.87;;
19842;SDS011;10082;51.038;6.992;2022-11-25T07:46:12;17.33;;;6.90;;
19842;SDS011;10082;51.038;6.992;2022-11-25T07:48:40;14.47;;;6.70;;
19842;SDS011;10082;51.038;6.992;2022-11-25T07:51:15;11.67;;;6.57;;
19842;SDS011;10082;51.038;6.992;2022-11-25T07:53:43;11.70;;;6.07;;
19842;SDS011;10082;51.038;6.992;2022-11-25T07:56:11;12.53;;;6.53;;
19842;SDS011;10082;51.038;6.992;2022-11-25T07:58:38;10.87;;;5.87;;
19842;SDS011;10082;51.038;6.992;2022-11-25T08:01:11;14.63;;;6.90;;
19842;SDS011;10082;51.038;6.992;2022-11-25T08:03:40;12.10;;;6.23;;
19842;SDS011;10082;51.038;6.992;2022-11-25T08:06:08;12.83;;;6.43;;
19842;SDS011;10082;51.038;6.992;2022-11-25T08:08:37;17.83;;;7.70;;
19842;SDS011;10082;51.038;6.992;2022-11-25T08:11:05;16.95;;;7.35;;
19842;SDS011;10082;51.038;6.992;2022-11-25T08:13:33;12.35;;;6.85;;
19842;SDS011;10082;51.038;6.992;2022-11-25T08:15:59;12.90;;;6.40;;
19842;SDS011;10082;51.038;6.992;2022-11-25T08:18:28;11.60;;;6.20;;
19842;SDS011;10082;51.038;6.992;2022-11-25T08:20:57;10.73;;;5.90;;
19842;SDS011;10082;51.038;6.992;2022-11-25T08:23:24;11.37;;;6.00;;
19842;SDS011;10082;51.038;6.992;2022-11-25T08:25:53;11.40;;;6.47;;
19842;SDS011;10082;51.038;6.992;2022-11-25T08:28:20;10.27;;;5.90;;
19842;SDS011;10082;51.038;6.992;2022-11-25T08:30:47;8.68;;;5.85;;
19842;SDS011;10082;51.038;6.992;2022-11-25T08:33:15;9.82;;;5.40;;
19842;SDS011;10082;51.038;6.992;2022-11-25T08:35:43;10.52;;;5.63;;
19842;SDS011;10082;51.038;6.992;2022-11-25T08:38:18;10.25;;;6.15;;
19842;SDS011;10082;51.038;6.992;2022-11-25T08:40:45;5.72;;;4.03;;
19842;SDS011;10082;51.038;6.992;2022-11-25T08:43:12;11.95;;;4.65;;
19842;SDS011;10082;51.038;6.992;2022-11-25T08:45:39;7.75;;;3.92;;
19842;SDS011;10082;51.038;6.992;2022-11-25T08:48:06;7.15;;;3.72;;
19842;SDS011;10082;51.038;6.992;2022-11-25T08:50:33;9.70;;;3.90;;
19842;SDS011;10082;51.038;6.992;2022-11-25T08:53:02;6.18;;;3.92;;
19842;SDS011;10082;51.038;6.992;2022-11-25T08:55:29;6.95;;;3.67;;
19842;SDS011;10082;51.038;6.992;2022-11-25T08:57:57;6.60;;;3.95;;
19842;SDS011;10082;51.038;6.992;2022-11-25T09:00:24;6.45;;;3.78;;
19842;SDS011;10082;51.038;6.992;2022-11-25T09:02:51;7.85;;;3.90;;
19842;SDS011;10082;51.038;6.992;2022-11-25T09:05:18;6.88;;;3.97;;
19842;SDS011;10082;51.038;6.992;2022-11-25T09:07:45;6.53;;;3.38;;
19842;SDS011;10082;51.038;6.992;2022-11-25T09:10:14;5.75;;;3.45;;
19842;SDS011;10082;51.038;6.992;2022-11-25T09:12:42;4.88;;;3.30;;
19842;SDS011;10082;51.038;6.992;2022-11-25T09:15:09;6.28;;;3.33;;
19842;SDS011;10082;51.038;6.992;2022-11-25T09:17:36;8.18;;;3.63;;
19842;SDS011;10082;51.038;6.992;2022-11-25T09:20:04;6.47;;;3.30;;
19842;SDS011;10082;51.038;6.992;2022-11-25T09:22:31;7.28;;;3.65;;
19842;SDS011;10082;51.038;6.992;2022-11-25T09:24:58;7.20;;;3.38;;
19842;SDS011;10082;51.038;6.992;2022-11-25T09:27:27;4.97;;;3.13;;
19842;SDS011;10082;51.038;6.992;2022-11-25T09:29:54;5.57;;;3.30;;
19842;SDS011;10082;51.038;6.992;2022-11-25T09:32:21;6.38;;;3.15;;
19842;SDS011;10082;51.038;6.992;2022-11-25T09:34:48;6.88;;;3.28;;
19842;SDS011;10082;51.038;6.992;2022-11-25T09:37:15;7.03;;;3.10;;
19842;SDS011;10082;51.038;6.992;2022-11-25T09:39:42;5.80;;;2.90;;
19842;SDS011;10082;51.038;6.992;2022-11-25T09:42:14;4.70;;;3.20;;
19842;SDS011;10082;51.038;6.992;2022-11-25T09:45:16;4.78;;;3.00;;
19842;SDS011;10082;51.038;6.992;2022-11-25T09:48:10;7.68;;;3.42;;
19842;SDS011;10082;51.038;6.992;2022-11-25T09:50:53;5.72;;;3.38;;
19842;SDS011;10082;51.038;6.992;2022-11-25T09:53:32;5.82;;;3.13;;
19842;SDS011;10082;51.038;6.992;2022-11-25T09:56:09;7.70;;;3.20;;
19842;SDS011;10082;51.038;6.992;2022-11-25T09:58:45;6.18;;;3.28;;
19842;SDS011;10082;51.038;6.992;2022-11-25T10:01:19;4.60;;;3.05;;
19842;SDS011;10082;51.038;6.992;2022-11-25T10:03:50;5.38;;;2.83;;
19842;SDS011;10082;51.038;6.992;2022-11-25T10:06:22;5.72;;;2.85;;
19842;SDS011;10082;51.038;6.992;2022-11-25T10:08:51;6.40;;;3.47;;
19842;SDS011;10082;51.038;6.992;2022-11-25T10:11:25;6.78;;;3.25;;
19842;SDS011;10082;51.038;6.992;2022-11-25T10:14:00;6.22;;;3.20;;
19842;SDS011;10082;51.038;6.992;2022-11-25T10:16:35;6.32;;;3.55;;
19842;SDS011;10082;51.038;6.992;2022-11-25T10:19:12;8.10;;;3.33;;
19842;SDS011;10082;51.038;6.992;2022-11-25T10:21:46;5.85;;;3.45;;
19842;SDS011;10082;51.038;6.992;2022-11-25T10:24:14;7.45;;;2.92;;
19842;SDS011;10082;51.038;6.992;2022-11-25T10:26:43;5.90;;;3.05;;
19842;SDS011;10082;51.038;6.992;2022-11-25T10:29:19;6.53;;;3.03;;
19842;SDS011;10082;51.038;6.992;2022-11-25T10:31:50;5.78;;;2.78;;
19842;SDS011;10082;51.038;6.992;2022-11-25T10:34:27;6.35;;;2.92;;
19842;SDS011;10082;51.038;6.992;2022-11-25T10:36:57;6.05;;;2.78;;
19842;SDS011;10082;51.038;6.992;2022-11-25T10:39:28;6.30;;;2.70;;
19842;SDS011;10082;51.038;6.992;2022-11-25T10:41:58;6.97;;;3.00;;
19842;SDS011;10082;51.038;6.992;2022-11-25T10:44:31;7.18;;;2.60;;
19842;SDS011;10082;51.038;6.992;2022-11-25T10:47:05;4.38;;;1.88;;
19842;SDS011;10082;51.038;6.992;2022-11-25T10:49:47;5.20;;;2.17;;
19842;SDS011;10082;51.038;6.992;2022-11-25T10:52:25;6.68;;;2.53;;
19842;SDS011;10082;51.038;6.992;2022-11-25T10:54:55;10.25;;;2.40;;
19842;SDS011;10082;51.038;6.992;2022-11-25T10:57:25;7.07;;;2.38;;
19842;SDS011;10082;51.038;6.992;2022-11-25T10:59:55;7.28;;;2.35;;
19842;SDS011;10082;51.038;6.992;2022-11-25T11:02:26;7.60;;;3.00;;
19842;SDS011;10082;51.038;6.992;2022-11-25T11:04:55;6.10;;;2.40;;
19842;SDS011;10082;51.038;6.992;2022-11-25T11:07:25;7.15;;;2.97;;
19842;SDS011;10082;51.038;6.992;2022-11-25T11:09:53;5.70;;;2.30;;
19842;SDS011;10082;51.038;6.992;2022-11-25T11:12:41;6.00;;;2.45;;
19842;SDS011;10082;51.038;6.992;2022-11-25T11:15:17;6.00;;;2.47;;
19842;SDS011;10082;51.038;6.992;2022-11-25T11:17:48;8.20;;;2.67;;
19842;SDS011;10082;51.038;6.992;2022-11-25T11:20:18;8.23;;;2.60;;
19842;SDS011;10082;51.038;6.992;2022-11-25T11:22:49;8.10;;;2.72;;
19842;SDS011;10082;51.038;6.992;2022-11-25T11:25:26;8.82;;;2.97;;
19842;SDS011;10082;51.038;6.992;2022-11-25T11:27:55;8.02;;;2.63;;
19842;SDS011;10082;51.038;6.992;2022-11-25T11:30:27;8.75;;;2.50;;
19842;SDS011;10082;51.038;6.992;2022-11-25T11:32:58;9.07;;;2.70;;
19842;SDS011;10082;51.038;6.992;2022-11-25T11:35:29;6.97;;;2.40;;
19842;SDS011;10082;51.038;6.992;2022-11-25T11:38:11;7.80;;;2.20;;
19842;SDS011;10082;51.038;6.992;2022-11-25T11:40:47;7.43;;;2.45;;
19842;SDS011;10082;51.038;6.992;2022-11-25T11:43:28;9.98;;;2.72;;
19842;SDS011;10082;51.038;6.992;2022-11-25T11:46:09;8.85;;;2.75;;
19842;SDS011;10082;51.038;6.992;2022-11-25T11:48:47;11.90;;;3.83;;
19842;SDS011;10082;51.038;6.992;2022-11-25T11:51:24;9.20;;;2.78;;
19842;SDS011;10082;51.038;6.992;2022-11-25T11:53:59;7.75;;;2.80;;
19842;SDS011;10082;51.038;6.992;2022-11-25T11:56:34;10.05;;;2.92;;
19842;SDS011;10082;51.038;6.992;2022-11-25T11:59:07;6.10;;;2.75;;
19842;SDS011;10082;51.038;6.992;2022-11-25T12:01:58;13.18;;;3.05;;
19842;SDS011;10082;51.038;6.992;2022-11-25T12:04:42;8.05;;;3.15;;
19842;SDS011;10082;51.038;6.992;2022-11-25T12:07:16;7.50;;;3.15;;
19842;SDS011;10082;51.038;6.992;2022-11-25T12:09:48;10.32;;;3.20;;
19842;SDS011;10082;51.038;6.992;2022-11-25T12:12:21;11.05;;;3.47;;
19842;SDS011;10082;51.038;6.992;2022-11-25T12:14:56;11.25;;;3.58;;
19842;SDS011;10082;51.038;6.992;2022-11-25T12:17:31;9.15;;;3.22;;
19842;SDS011;10082;51.038;6.992;2022-11-25T12:20:06;11.48;;;3.08;;
19842;SDS011;10082;51.038;6.992;2022-11-25T12:22:43;9.27;;;3.35;;
19842;SDS011;10082;51.038;6.992;2022-11-25T12:25:16;9.93;;;3.10;;
19842;SDS011;10082;51.038;6.992;2022-11-25T12:27:48;7.00;;;3.70;;
19842;SDS011;10082;51.038;6.992;2022-11-25T12:30:22;6.47;;;2.65;;
19842;SDS011;10082;51.038;6.992;2022-11-25T12:32:56;12.55;;;3.17;;
19842;SDS011;10082;51.038;6.992;2022-11-25T12:38:22;8.23;;;2.67;;
19842;SDS011;10082;51.038;6.992;2022-11-25T12:40:58;8.32;;;3.00;;
19842;SDS011;10082;51.038;6.992;2022-11-25T12:43:31;7.82;;;2.65;;
19842;SDS011;10082;51.038;6.992;2022-11-25T12:46:06;9.52;;;3.20;;
19842;SDS011;10082;51.038;6.992;2022-11-25T12:48:41;10.27;;;3.28;;
19842;SDS011;10082;51.038;6.992;2022-11-25T12:51:13;10.68;;;3.15;;
19842;SDS011;10082;51.038;6.992;2022-11-25T12:53:47;11.10;;;3.47;;
19842;SDS011;10082;51.038;6.992;2022-11-25T12:56:23;11.05;;;3.35;;
19842;SDS011;10082;51.038;6.992;2022-11-25T12:59:01;10.77;;;3.65;;
19842;SDS011;10082;51.038;6.992;2022-11-25T13:01:55;8.98;;;3.05;;
19842;SDS011;10082;51.038;6.992;2022-11-25T13:04:43;12.55;;;3.42;;
19842;SDS011;10082;51.038;6.992;2022-11-25T13:07:27;8.90;;;3.00;;
19842;SDS011;10082;51.038;6.992;2022-11-25T13:13:08;7.75;;;2.97;;
19842;SDS011;10082;51.038;6.992;2022-11-25T13:15:46;8.82;;;2.72;;
19842;SDS011;10082;51.038;6.992;2022-11-25T13:18:17;7.68;;;3.00;;
19842;SDS011;10082;51.038;6.992;2022-11-25T13:20:47;7.60;;;2.85;;
19842;SDS011;10082;51.038;6.992;2022-11-25T13:23:24;9.75;;;3.00;;
19842;SDS011;10082;51.038;6.992;2022-11-25T13:28:53;10.35;;;3.08;;
19842;SDS011;10082;51.038;6.992;2022-11-25T13:31:21;9.82;;;2.80;;
19842;SDS011;10082;51.038;6.992;2022-11-25T13:33:55;6.97;;;2.55;;
19842;SDS011;10082;51.038;6.992;2022-11-25T13:36:45;8.25;;;2.80;;
19842;SDS011;10082;51.038;6.992;2022-11-25T13:39:15;6.30;;;2.60;;
19842;SDS011;10082;51.038;6.992;2022-11-25T13:41:44;8.68;;;3.00;;
19842;SDS011;10082;51.038;6.992;2022-11-25T13:44:18;8.35;;;2.55;;
19842;SDS011;10082;51.038;6.992;2022-11-25T13:46:48;7.28;;;2.70;;
19842;SDS011;10082;51.038;6.992;2022-11-25T13:49:21;8.43;;;3.10;;
19842;SDS011;10082;51.038;6.992;2022-11-25T13:51:54;8.30;;;2.53;;
19842;SDS011;10082;51.038;6.992;2022-11-25T13:54:29;7.68;;;2.60;;
19842;SDS011;10082;51.038;6.992;2022-11-25T13:59:48;8.95;;;3.13;;
19842;SDS011;10082;51.038;6.992;2022-11-25T14:02:28;6.05;;;2.72;;
19842;SDS011;10082;51.038;6.992;2022-11-25T14:04:59;10.65;;;5.93;;
19842;SDS011;10082;51.038;6.992;2022-11-25T14:07:40;7.50;;;2.88;;
19842;SDS011;10082;51.038;6.992;2022-11-25T14:10:24;7.20;;;3.10;;
19842;SDS011;10082;51.038;6.992;2022-11-25T14:13:22;7.55;;;2.60;;
19842;SDS011;10082;51.038;6.992;2022-11-25T14:16:07;7.85;;;2.80;;
19842;SDS011;10082;51.038;6.992;2022-11-25T14:19:01;6.90;;;2.58;;
19842;SDS011;10082;51.038;6.992;2022-11-25T14:21:59;9.02;;;2.70;;
19842;SDS011;10082;51.038;6.992;2022-11-25T14:24:36;6.70;;;2.30;;
19842;SDS011;10082;51.038;6.992;2022-11-25T14:27:12;7.43;;;2.50;;
19842;SDS011;10082;51.038;6.992;2022-11-25T14:29:42;7.20;;;2.50;;
19842;SDS011;10082;51.038;6.992;2022-11-25T14:32:17;6.60;;;2.63;;
19842;SDS011;10082;51.038;6.992;2022-11-25T14:34:48;5.65;;;2.30;;
19842;SDS011;10082;51.038;6.992;2022-11-25T14:37:21;6.53;;;2.58;;
19842;SDS011;10082;51.038;6.992;2022-11-25T14:39:54;6.07;;;2.25;;
19842;SDS011;10082;51.038;6.992;2022-11-25T14:42:25;6.40;;;2.50;;
19842;SDS011;10082;51.038;6.992;2022-11-25T14:44:58;7.95;;;2.40;;
19842;SDS011;10082;51.038;6.992;2022-11-25T14:47:27;7.07;;;2.40;;
19842;SDS011;10082;51.038;6.992;2022-11-25T14:49:57;7.28;;;2.40;;
19842;SDS011;10082;51.038;6.992;2022-11-25T14:52:25;8.07;;;2.65;;
19842;SDS011;10082;51.038;6.992;2022-11-25T14:54:55;7.07;;;2.45;;
19842;SDS011;10082;51.038;6.992;2022-11-25T14:57:25;5.38;;;3.20;;
19842;SDS011;10082;51.038;6.992;2022-11-25T14:59:55;7.97;;;2.67;;
19842;SDS011;10082;51.038;6.992;2022-11-25T15:02:29;5.82;;;2.38;;
19842;SDS011;10082;51.038;6.992;2022-11-25T15:05:07;5.65;;;2.50;;
19842;SDS011;10082;51.038;6.992;2022-11-25T15:07:42;5.40;;;2.83;;
19842;SDS011;10082;51.038;6.992;2022-11-25T15:12:57;6.25;;;2.25;;
19842;SDS011;10082;51.038;6.992;2022-11-25T15:15:26;7.28;;;2.70;;
19842;SDS011;10082;51.038;6.992;2022-11-25T15:17:53;5.95;;;2.30;;
19842;SDS011;10082;51.038;6.992;2022-11-25T15:20:20;6.47;;;2.53;;
19842;SDS011;10082;51.038;6.992;2022-11-25T15:22:51;7.68;;;2.88;;
19842;SDS011;10082;51.038;6.992;2022-11-25T15:25:18;4.75;;;2.25;;